Main page
METAR-TAF:

METAR-TAF

Airports :

Stornoway, Scotland

Stornoway Airport

latitude: 58-13N, longitude: 006-19W, elevation: 9 m

Current weather observation

The report was made 46 minutes ago, at 21:20 UTC
Wind 4 kt from the West/Southwest
Temperature 6°C
Humidity 93%
Pressure 1016 hPa
Visibility 10 km or more

METAR: EGPO 192120Z AUTO 24004KT 9999 NCD 06/05 Q1016

Time: 22:06 (22:06 UTC)

Forecast

The report was made 2 hours and 11 minutes ago, at 19:55 UTC
Forecast valid from 19 at 21 UTC to 20 at 06 UTC
Wind 8 kt from the West
Visibility 10 km or more
Few clouds at a height of 1500 ft
Scattered clouds at a height of 2500 ft

TAF: EGPO 191955Z 1921/2006 26008KT 9999 FEW015 SCT025

Weather observations and forecasts of more than 4000 airports (METAR and TAF reports).

The available stations are represented by yellow and red dots on the map.

Hover mouse over dot to see the name of the station.

Then click to see weather observations and forecasts.

To change the map : click on the green buttons with a black cross to zoom in, on the green button with a dash to zoom out, or on the green arrows for adjacent maps.


METAR-TAF: